createdAt,value
2023-05-06T00:01:37.073Z,73.19
2023-05-06T00:04:03.930Z,73.04
2023-05-06T00:06:30.633Z,73.23
2023-05-06T00:08:57.229Z,72.82
2023-05-06T00:11:23.789Z,72.69
2023-05-06T00:13:50.384Z,72.36
2023-05-06T00:16:17.114Z,72.60
2023-05-06T00:18:43.748Z,72.56
2023-05-06T00:21:10.329Z,72.89
2023-05-06T00:23:36.850Z,72.56
2023-05-06T00:26:03.509Z,72.48
2023-05-06T00:28:30.116Z,72.49
2023-05-06T00:30:56.658Z,72.49
2023-05-06T00:33:23.170Z,72.73
2023-05-06T00:35:49.741Z,72.28
2023-05-06T00:38:16.992Z,71.85
2023-05-06T00:40:43.537Z,71.71
2023-05-06T00:43:10.103Z,71.60
2023-05-06T00:45:37.096Z,71.85
2023-05-06T00:48:06.698Z,71.95
2023-05-06T00:50:34.517Z,71.78
2023-05-06T00:53:03.650Z,71.77
2023-05-06T00:55:31.165Z,71.35
2023-05-06T00:57:58.231Z,71.49
2023-05-06T01:00:25.146Z,71.57
2023-05-06T01:02:51.932Z,71.70
2023-05-06T01:05:22.286Z,71.27
2023-05-06T01:08:06.621Z,71.09
2023-05-06T01:10:40.612Z,70.87
2023-05-06T01:13:21.483Z,71.36
2023-05-06T01:15:53.968Z,71.36
2023-05-06T01:18:26.507Z,71.28
2023-05-06T01:20:56.009Z,71.07
2023-05-06T01:23:22.609Z,71.44
2023-05-06T01:25:49.217Z,71.53
2023-05-06T01:28:15.760Z,71.77
2023-05-06T01:30:48.393Z,71.39
2023-05-06T01:33:24.048Z,71.53
2023-05-06T01:36:21.884Z,71.74
2023-05-06T01:38:51.704Z,72.06
2023-05-06T01:41:19.162Z,72.33
2023-05-06T01:43:49.019Z,72.32
2023-05-06T01:46:19.014Z,72.78
2023-05-06T01:48:47.159Z,73.12
2023-05-06T01:51:13.774Z,73.55
2023-05-06T01:53:40.350Z,74.14
2023-05-06T01:56:07.299Z,74.06
2023-05-06T01:58:33.860Z,74.70
2023-05-06T02:01:00.382Z,74.69
2023-05-06T02:03:27.019Z,74.86
2023-05-06T02:05:53.630Z,75.36
2023-05-06T02:08:20.516Z,75.73
2023-05-06T02:10:47.162Z,76.18
2023-05-06T02:13:13.789Z,76.20
2023-05-06T02:15:40.381Z,76.69
2023-05-06T02:18:07.050Z,76.44
2023-05-06T02:20:33.626Z,76.45
2023-05-06T02:23:00.191Z,76.46
2023-05-06T02:25:26.768Z,76.70
2023-05-06T02:27:53.357Z,76.92
2023-05-06T02:30:20.120Z,77.09
2023-05-06T02:32:47.307Z,77.31
2023-05-06T02:35:13.876Z,77.47
2023-05-06T02:37:40.405Z,77.72
2023-05-06T02:40:08.997Z,77.63
2023-05-06T02:42:35.986Z,78.03
2023-05-06T02:45:02.717Z,78.20
2023-05-06T02:47:29.295Z,78.29
2023-05-06T02:49:55.882Z,78.46
2023-05-06T02:52:22.456Z,79.13
2023-05-06T02:54:48.989Z,78.84
2023-05-06T02:57:15.514Z,79.48
2023-05-06T02:59:42.139Z,79.96
2023-05-06T03:02:08.674Z,79.72
2023-05-06T03:04:35.458Z,80.21
2023-05-06T03:07:02.097Z,80.65
2023-05-06T03:09:28.680Z,80.29
2023-05-06T03:11:56.536Z,80.32
2023-05-06T03:14:23.128Z,80.43
2023-05-06T03:16:49.792Z,80.39
2023-05-06T03:19:16.367Z,80.96
2023-05-06T03:21:43.517Z,80.57
2023-05-06T03:24:10.335Z,80.42
2023-05-06T03:26:37.047Z,81.21
2023-05-06T03:29:03.558Z,81.15
2023-05-06T03:31:30.172Z,81.01
2023-05-06T03:33:56.757Z,80.96
2023-05-06T03:36:25.844Z,80.94
2023-05-06T03:38:52.421Z,81.56
2023-05-06T03:41:18.976Z,81.14
2023-05-06T03:43:45.634Z,81.25
2023-05-06T03:46:12.220Z,81.26
2023-05-06T03:48:38.872Z,81.37
2023-05-06T03:51:05.784Z,81.99
2023-05-06T03:53:32.440Z,81.91
2023-05-06T03:55:59.096Z,81.73
2023-05-06T03:58:25.684Z,82.27
2023-05-06T04:00:52.222Z,82.31
2023-05-06T04:03:18.963Z,82.29
2023-05-06T04:05:46.596Z,81.95
2023-05-06T04:08:13.092Z,81.34
2023-05-06T04:10:40.617Z,81.69
2023-05-06T04:13:07.553Z,81.83
2023-05-06T04:15:35.592Z,81.50
2023-05-06T04:18:02.333Z,82.46
2023-05-06T04:20:29.083Z,82.42
2023-05-06T04:22:55.660Z,82.86
2023-05-06T04:25:22.422Z,81.84
2023-05-06T04:27:48.957Z,82.68
2023-05-06T04:30:15.666Z,82.05
2023-05-06T04:32:42.342Z,82.00
2023-05-06T04:35:09.481Z,82.47
2023-05-06T04:37:36.492Z,82.05
2023-05-06T04:40:04.653Z,82.43
2023-05-06T04:42:32.158Z,82.17
2023-05-06T04:44:59.356Z,82.36
2023-05-06T04:47:26.249Z,82.17
2023-05-06T04:49:52.879Z,81.57
2023-05-06T04:52:19.414Z,81.45
2023-05-06T04:54:46.024Z,81.75
2023-05-06T04:57:12.637Z,81.93
2023-05-06T04:59:39.283Z,80.51
2023-05-06T05:02:05.981Z,79.38
2023-05-06T05:04:32.509Z,78.08
2023-05-06T05:06:59.095Z,76.90
2023-05-06T05:09:25.883Z,76.11
2023-05-06T05:11:52.408Z,75.41
2023-05-06T05:14:19.026Z,73.91
2023-05-06T05:16:45.683Z,73.96
2023-05-06T05:19:12.225Z,72.98
2023-05-06T05:21:39.116Z,71.88
2023-05-06T05:24:05.961Z,72.14
2023-05-06T05:26:32.477Z,71.31
2023-05-06T05:28:59.011Z,71.30
2023-05-06T05:31:25.754Z,70.08
2023-05-06T05:33:52.398Z,70.21
2023-05-06T05:36:19.365Z,69.82
2023-05-06T05:38:47.777Z,69.21
2023-05-06T05:41:16.111Z,69.17
2023-05-06T05:43:43.970Z,69.52
2023-05-06T05:46:10.573Z,69.19
2023-05-06T05:48:39.770Z,68.64
2023-05-06T05:51:06.583Z,68.23
2023-05-06T05:53:33.094Z,68.50
2023-05-06T05:55:59.664Z,67.82
2023-05-06T05:58:26.186Z,68.49
2023-05-06T06:00:52.852Z,68.08
2023-05-06T06:03:19.525Z,68.33
2023-05-06T06:05:46.316Z,67.82
2023-05-06T06:08:13.340Z,68.00
2023-05-06T06:10:39.854Z,67.89
2023-05-06T06:13:06.538Z,67.42
2023-05-06T06:15:33.109Z,67.35
2023-05-06T06:17:59.744Z,67.71
2023-05-06T06:20:26.658Z,67.64
2023-05-06T06:22:53.179Z,66.96
2023-05-06T06:25:20.173Z,67.59
2023-05-06T06:27:46.816Z,67.23
2023-05-06T06:30:13.513Z,67.32
2023-05-06T06:32:54.196Z,66.67
2023-05-06T06:35:20.792Z,67.40
2023-05-06T06:37:47.921Z,66.85
2023-05-06T06:40:15.027Z,66.18
2023-05-06T06:42:41.817Z,66.02
2023-05-06T06:45:10.016Z,66.86
2023-05-06T06:47:36.960Z,66.38
2023-05-06T06:50:03.725Z,66.32
2023-05-06T06:52:30.398Z,65.91
2023-05-06T06:54:56.915Z,66.49
2023-05-06T06:57:23.447Z,65.93
2023-05-06T06:59:52.631Z,65.17
2023-05-06T07:02:22.792Z,65.39
2023-05-06T07:04:49.491Z,65.20
2023-05-06T07:07:16.053Z,65.91
2023-05-06T07:09:44.226Z,65.72
2023-05-06T07:12:11.004Z,66.04
2023-05-06T07:14:37.637Z,65.66
2023-05-06T07:17:04.424Z,65.94
2023-05-06T07:19:33.570Z,64.99
2023-05-06T07:22:00.754Z,65.88
2023-05-06T07:24:27.274Z,65.37
2023-05-06T07:26:53.901Z,65.06
2023-05-06T07:29:20.623Z,65.27
2023-05-06T07:31:47.149Z,64.16
2023-05-06T07:34:13.752Z,63.29
2023-05-06T07:36:40.904Z,63.38
2023-05-06T07:39:07.908Z,63.57
2023-05-06T07:41:34.661Z,63.86
2023-05-06T07:44:01.529Z,63.42
2023-05-06T07:46:28.366Z,63.46
2023-05-06T07:48:55.048Z,63.24
2023-05-06T07:51:21.851Z,62.81
2023-05-06T07:53:48.513Z,62.47
2023-05-06T07:56:15.076Z,62.52
2023-05-06T07:58:41.620Z,62.23
2023-05-06T08:01:08.222Z,62.52
2023-05-06T08:03:35.664Z,62.33
2023-05-06T08:06:02.703Z,62.46
2023-05-06T08:08:29.336Z,62.69
2023-05-06T08:10:57.900Z,62.61
2023-05-06T08:13:25.841Z,62.49
2023-05-06T08:15:53.122Z,61.21
2023-05-06T08:18:22.988Z,61.76
2023-05-06T08:20:50.111Z,61.38
2023-05-06T08:23:16.778Z,61.02
2023-05-06T08:25:43.329Z,60.61
2023-05-06T08:28:09.858Z,60.83
2023-05-06T08:30:36.909Z,60.16
2023-05-06T08:33:03.883Z,59.13
2023-05-06T08:35:30.702Z,59.44
2023-05-06T08:37:57.295Z,58.97
2023-05-06T08:40:27.029Z,58.65
2023-05-06T08:42:56.040Z,58.18
2023-05-06T08:45:23.463Z,57.59
2023-05-06T08:47:50.145Z,56.97
2023-05-06T08:50:16.892Z,57.43
2023-05-06T08:52:43.771Z,57.23
2023-05-06T08:55:10.611Z,57.54
2023-05-06T08:57:37.684Z,56.66
2023-05-06T09:00:05.044Z,55.79
2023-05-06T09:02:31.811Z,56.15
2023-05-06T09:04:59.973Z,55.64
2023-05-06T09:07:26.934Z,54.90
2023-05-06T09:09:53.495Z,55.28
2023-05-06T09:12:20.340Z,54.83
2023-05-06T09:14:50.137Z,54.98
2023-05-06T09:17:24.496Z,54.21
2023-05-06T09:19:53.276Z,54.40
2023-05-06T09:22:32.159Z,54.96
2023-05-06T09:24:59.165Z,55.82
2023-05-06T09:27:28.118Z,56.65
2023-05-06T09:30:06.292Z,55.38
2023-05-06T09:32:33.666Z,54.29
2023-05-06T09:35:01.222Z,55.10
2023-05-06T09:37:28.185Z,55.02
2023-05-06T09:40:00.552Z,55.15
2023-05-06T09:42:29.687Z,55.34
2023-05-06T09:47:42.283Z,56.20
2023-05-06T09:50:09.461Z,54.98
2023-05-06T09:52:37.137Z,54.40
2023-05-06T09:55:04.344Z,53.85
2023-05-06T09:57:32.546Z,54.38
2023-05-06T10:00:01.419Z,53.62
2023-05-06T10:02:29.857Z,53.05
2023-05-06T10:04:57.696Z,52.01
2023-05-06T10:07:28.776Z,53.11
2023-05-06T10:09:58.412Z,52.35
2023-05-06T10:12:26.230Z,52.03
2023-05-06T10:14:53.063Z,52.34
2023-05-06T10:17:27.249Z,50.52
2023-05-06T10:19:59.022Z,50.69
2023-05-06T10:22:46.952Z,49.66
2023-05-06T10:25:32.360Z,50.10
2023-05-06T10:27:59.932Z,50.03
2023-05-06T10:30:28.544Z,48.96
2023-05-06T10:32:57.290Z,49.74
2023-05-06T10:35:32.634Z,49.19
2023-05-06T10:38:02.721Z,49.61
2023-05-06T10:40:29.757Z,48.35
2023-05-06T10:43:24.471Z,47.88
2023-05-06T10:46:01.660Z,48.48
2023-05-06T10:48:29.667Z,49.09
2023-05-06T10:51:21.275Z,48.74
2023-05-06T10:54:07.772Z,48.42
2023-05-06T10:56:54.207Z,48.23
2023-05-06T10:59:22.060Z,47.50
2023-05-06T11:02:07.637Z,47.11
2023-05-06T11:04:34.459Z,47.68
2023-05-06T11:07:15.421Z,47.46
2023-05-06T11:10:02.312Z,46.64
2023-05-06T11:12:52.471Z,46.07
2023-05-06T11:15:26.645Z,45.16
2023-05-06T11:17:55.910Z,44.89
2023-05-06T11:20:24.029Z,44.81
2023-05-06T11:22:50.910Z,43.70
2023-05-06T11:25:41.233Z,43.65
2023-05-06T11:28:15.438Z,43.47
2023-05-06T11:30:43.935Z,43.21
2023-05-06T11:33:19.070Z,42.32
2023-05-06T11:35:46.227Z,42.08
2023-05-06T11:38:12.831Z,42.05
2023-05-06T11:40:41.859Z,41.48
2023-05-06T11:43:15.679Z,41.82
2023-05-06T11:45:46.975Z,41.24
2023-05-06T11:48:14.758Z,42.20
2023-05-06T11:50:48.687Z,41.87
2023-05-06T11:53:19.117Z,42.13
2023-05-06T11:55:46.703Z,41.16
2023-05-06T11:58:16.728Z,40.63
2023-05-06T12:00:54.329Z,41.81
2023-05-06T12:03:21.770Z,42.64
2023-05-06T12:05:49.997Z,41.50
2023-05-06T12:08:27.543Z,42.14
2023-05-06T12:11:00.750Z,42.07
2023-05-06T12:13:28.510Z,42.03
2023-05-06T12:15:56.890Z,41.15
2023-05-06T12:18:24.485Z,41.74
2023-05-06T12:20:54.611Z,41.62
2023-05-06T12:23:22.197Z,41.17
2023-05-06T12:26:04.404Z,40.63
2023-05-06T12:28:32.422Z,41.36
2023-05-06T12:30:59.347Z,41.32
2023-05-06T12:33:26.023Z,41.25
2023-05-06T12:35:54.791Z,40.36
2023-05-06T12:38:21.510Z,40.20
2023-05-06T12:40:54.849Z,40.87
2023-05-06T12:43:32.624Z,40.49
2023-05-06T12:46:07.386Z,39.95
2023-05-06T12:48:34.105Z,40.67
2023-05-06T12:51:16.966Z,39.61
2023-05-06T12:53:43.752Z,39.43
2023-05-06T12:56:10.258Z,40.03
2023-05-06T12:58:38.088Z,40.23
2023-05-06T13:01:04.800Z,40.09
2023-05-06T13:03:31.504Z,40.18
2023-05-06T13:05:58.142Z,40.42
2023-05-06T13:08:24.725Z,40.24
2023-05-06T13:10:51.224Z,40.47
2023-05-06T13:13:17.829Z,40.06
2023-05-06T13:15:44.468Z,39.88
2023-05-06T13:18:11.030Z,40.25
2023-05-06T13:20:37.787Z,39.75
2023-05-06T13:23:04.802Z,38.80
2023-05-06T13:25:31.352Z,38.03
2023-05-06T13:27:57.855Z,37.48
2023-05-06T13:30:24.436Z,36.77
2023-05-06T13:32:51.032Z,36.21
2023-05-06T13:35:17.601Z,35.38
2023-05-06T13:37:44.158Z,36.15
2023-05-06T13:40:11.961Z,36.08
2023-05-06T13:42:39.016Z,36.27
2023-05-06T13:45:06.274Z,36.14
2023-05-06T13:47:32.813Z,36.25
2023-05-06T13:49:59.492Z,36.27
2023-05-06T13:52:26.298Z,35.92
2023-05-06T13:54:52.824Z,36.44
2023-05-06T13:57:19.578Z,36.64
2023-05-06T13:59:46.146Z,37.33
2023-05-06T14:02:13.420Z,37.32
2023-05-06T14:04:40.254Z,37.85
2023-05-06T14:07:06.807Z,37.76
2023-05-06T14:09:33.363Z,37.88
2023-05-06T14:11:59.919Z,37.88
2023-05-06T14:14:27.466Z,38.41
2023-05-06T14:16:55.594Z,38.96
2023-05-06T14:19:22.232Z,38.42
2023-05-06T14:21:48.807Z,38.27
2023-05-06T14:24:15.343Z,38.67
2023-05-06T14:26:42.730Z,38.92
2023-05-06T14:29:09.359Z,39.25
2023-05-06T14:31:35.995Z,39.06
2023-05-06T14:34:02.910Z,38.94
2023-05-06T14:36:29.478Z,39.08
2023-05-06T14:38:56.216Z,38.98
2023-05-06T14:41:22.811Z,38.74
2023-05-06T14:43:49.340Z,38.80
2023-05-06T14:46:16.343Z,38.83
2023-05-06T14:48:43.424Z,38.53
2023-05-06T14:51:09.977Z,38.56
2023-05-06T14:53:36.636Z,38.97
2023-05-06T14:56:03.181Z,38.29
2023-05-06T14:58:29.760Z,38.83
2023-05-06T15:00:57.040Z,38.52
2023-05-06T15:03:23.676Z,38.17
2023-05-06T15:05:51.065Z,38.44
2023-05-06T15:08:17.757Z,38.75
2023-05-06T15:10:44.421Z,39.05
2023-05-06T15:13:11.044Z,39.45
2023-05-06T15:15:37.733Z,39.65
2023-05-06T15:18:04.481Z,39.69
2023-05-06T15:20:31.156Z,39.55
2023-05-06T15:22:57.716Z,39.23
2023-05-06T15:25:34.060Z,38.96
2023-05-06T15:28:02.459Z,38.46
2023-05-06T15:30:29.005Z,37.86
2023-05-06T15:32:55.600Z,37.65
2023-05-06T15:35:22.312Z,37.90
2023-05-06T15:37:48.834Z,37.70
2023-05-06T15:40:15.454Z,36.83
2023-05-06T15:42:42.094Z,36.55
2023-05-06T15:45:09.079Z,37.46
2023-05-06T15:47:35.698Z,37.71
2023-05-06T15:50:06.829Z,36.87
2023-05-06T15:52:37.770Z,35.86
2023-05-06T15:55:05.130Z,36.13
2023-05-06T15:57:31.848Z,36.59
2023-05-06T15:59:58.423Z,36.98
2023-05-06T16:02:27.256Z,37.59
2023-05-06T16:04:54.763Z,37.45
2023-05-06T16:07:21.523Z,37.52
2023-05-06T16:09:48.054Z,37.35
2023-05-06T16:12:14.771Z,37.39
2023-05-06T16:14:41.387Z,37.27
2023-05-06T16:17:08.026Z,37.56
2023-05-06T16:19:35.165Z,37.27
2023-05-06T16:22:02.490Z,37.65
2023-05-06T16:24:29.078Z,37.78
2023-05-06T16:26:55.943Z,38.25
2023-05-06T16:29:23.021Z,38.34
2023-05-06T16:31:49.666Z,37.89
2023-05-06T16:34:16.357Z,37.42
2023-05-06T16:36:43.719Z,37.43
2023-05-06T16:39:10.296Z,37.35
2023-05-06T16:41:36.823Z,37.68
2023-05-06T16:44:03.395Z,37.99
2023-05-06T16:46:30.098Z,38.53
2023-05-06T16:48:56.649Z,38.79
2023-05-06T16:51:23.266Z,38.92
2023-05-06T16:53:49.970Z,40.27
2023-05-06T16:56:16.822Z,38.94
2023-05-06T16:58:43.567Z,38.76
2023-05-06T17:01:11.321Z,38.51
2023-05-06T17:03:38.260Z,38.72
2023-05-06T17:06:05.342Z,39.61
2023-05-06T17:08:36.006Z,38.53
2023-05-06T17:11:06.828Z,38.56
2023-05-06T17:13:33.973Z,39.58
2023-05-06T17:16:00.911Z,39.04
2023-05-06T17:18:27.498Z,40.90
2023-05-06T17:20:56.396Z,41.28
2023-05-06T17:23:24.237Z,41.86
2023-05-06T17:25:51.355Z,43.33
2023-05-06T17:28:18.821Z,44.48
2023-05-06T17:30:45.922Z,44.80
2023-05-06T17:33:12.944Z,46.08
2023-05-06T17:35:39.711Z,46.82
2023-05-06T17:38:06.251Z,46.50
2023-05-06T17:40:32.836Z,45.85
2023-05-06T17:42:59.445Z,46.59
2023-05-06T17:45:26.934Z,46.63
2023-05-06T17:47:53.638Z,47.42
2023-05-06T17:50:20.404Z,48.25
2023-05-06T17:52:50.718Z,48.69
2023-05-06T17:55:17.814Z,48.93
2023-05-06T17:57:44.536Z,48.97
2023-05-06T18:00:11.731Z,49.69
2023-05-06T18:02:38.692Z,49.39
2023-05-06T18:05:06.492Z,49.48
2023-05-06T18:07:33.204Z,49.58
2023-05-06T18:09:59.874Z,49.73
2023-05-06T18:12:26.437Z,49.08
2023-05-06T18:14:53.186Z,49.65
2023-05-06T18:17:19.753Z,50.11
2023-05-06T18:19:46.251Z,50.30
2023-05-06T18:22:13.145Z,50.57
2023-05-06T18:24:39.779Z,50.65
2023-05-06T18:27:06.307Z,50.74
2023-05-06T18:29:34.755Z,50.63
2023-05-06T18:32:01.719Z,50.95
2023-05-06T18:34:28.386Z,51.38
2023-05-06T18:36:55.000Z,51.85
2023-05-06T18:39:23.650Z,51.96
2023-05-06T18:41:50.245Z,52.32
2023-05-06T18:44:16.778Z,52.70
2023-05-06T18:46:43.355Z,52.57
2023-05-06T18:49:09.966Z,52.81
2023-05-06T18:51:36.913Z,53.04
2023-05-06T18:54:03.533Z,53.39
2023-05-06T18:56:30.093Z,53.98
2023-05-06T18:58:57.266Z,54.25
2023-05-06T19:01:25.149Z,54.86
2023-05-06T19:03:54.389Z,54.86
2023-05-06T19:06:20.958Z,54.99
2023-05-06T19:08:47.593Z,55.43
2023-05-06T19:11:21.198Z,55.30
2023-05-06T19:13:47.769Z,55.55
2023-05-06T19:16:14.331Z,55.99
2023-05-06T19:18:41.041Z,56.44
2023-05-06T19:21:12.555Z,56.56
2023-05-06T19:23:39.526Z,56.96
2023-05-06T19:26:07.178Z,57.05
2023-05-06T19:28:34.410Z,57.63
2023-05-06T19:31:01.147Z,57.82
2023-05-06T19:33:27.703Z,58.21
2023-05-06T19:35:54.258Z,58.41
2023-05-06T19:38:21.333Z,58.69
2023-05-06T19:40:47.966Z,59.00
2023-05-06T19:43:14.690Z,59.00
2023-05-06T19:45:41.869Z,59.71
2023-05-06T19:48:08.723Z,59.45
2023-05-06T19:50:35.537Z,59.79
2023-05-06T19:53:03.318Z,59.49
2023-05-06T19:55:29.888Z,59.69
2023-05-06T19:57:56.993Z,59.38
2023-05-06T20:00:25.533Z,59.42
2023-05-06T20:02:52.181Z,59.39
2023-05-06T20:05:18.899Z,59.40
2023-05-06T20:07:45.892Z,59.69
2023-05-06T20:10:13.654Z,59.57
2023-05-06T20:12:43.585Z,59.81
2023-05-06T20:15:10.668Z,60.32
2023-05-06T20:17:37.573Z,60.69
2023-05-06T20:20:09.518Z,61.02
2023-05-06T20:22:40.038Z,61.51
2023-05-06T20:25:17.515Z,61.56
2023-05-06T20:27:45.241Z,62.77
2023-05-06T20:30:12.355Z,63.09
2023-05-06T20:32:40.458Z,63.51
2023-05-06T20:35:07.837Z,64.45
2023-05-06T20:37:35.402Z,64.90
2023-05-06T20:40:04.747Z,64.69
2023-05-06T20:42:31.965Z,65.39
2023-05-06T20:44:58.990Z,65.41
2023-05-06T20:47:25.690Z,65.38
2023-05-06T20:49:52.286Z,65.63
2023-05-06T20:52:18.948Z,65.98
2023-05-06T20:54:45.756Z,66.35
2023-05-06T20:57:14.245Z,65.87
2023-05-06T20:59:41.106Z,66.25
2023-05-06T21:02:07.881Z,66.73
2023-05-06T21:04:34.522Z,66.68
2023-05-06T21:07:01.210Z,66.51
2023-05-06T21:09:28.673Z,66.67
2023-05-06T21:11:55.997Z,67.52
2023-05-06T21:14:24.956Z,67.57
2023-05-06T21:16:52.146Z,67.29
2023-05-06T21:19:19.367Z,68.40
2023-05-06T21:21:45.980Z,68.65
2023-05-06T21:24:13.056Z,68.17
2023-05-06T21:26:40.011Z,67.91
2023-05-06T21:29:06.659Z,68.46
2023-05-06T21:31:33.421Z,68.92
2023-05-06T21:34:00.160Z,69.40
2023-05-06T21:36:27.296Z,68.97
2023-05-06T21:39:06.588Z,69.41
2023-05-06T21:41:35.483Z,69.23
2023-05-06T21:44:03.317Z,69.13
2023-05-06T21:46:30.166Z,68.96
2023-05-06T21:48:57.003Z,69.83
2023-05-06T21:51:23.605Z,69.95
2023-05-06T21:53:50.868Z,70.18
2023-05-06T21:56:18.437Z,69.96
2023-05-06T21:58:45.092Z,70.82
2023-05-06T22:01:11.853Z,70.84
2023-05-06T22:03:38.654Z,71.24
2023-05-06T22:06:06.007Z,70.31
2023-05-06T22:08:32.653Z,71.24
2023-05-06T22:10:59.193Z,71.11
2023-05-06T22:13:27.094Z,71.78
2023-05-06T22:15:53.978Z,71.72
2023-05-06T22:18:20.603Z,71.35
2023-05-06T22:20:49.234Z,71.79
2023-05-06T22:23:15.887Z,72.07
2023-05-06T22:25:42.420Z,72.20
2023-05-06T22:28:08.947Z,71.64
2023-05-06T22:30:35.685Z,72.61
2023-05-06T22:33:02.240Z,72.00
2023-05-06T22:35:28.880Z,72.29
2023-05-06T22:37:55.391Z,71.87
2023-05-06T22:40:21.904Z,72.44
2023-05-06T22:42:48.478Z,72.53
2023-05-06T22:45:15.084Z,72.86
2023-05-06T22:47:41.686Z,72.24
2023-05-06T22:50:08.963Z,72.05
2023-05-06T22:52:35.520Z,72.52
2023-05-06T22:55:02.243Z,72.73
2023-05-06T22:57:28.859Z,72.98
2023-05-06T22:59:55.574Z,72.71
2023-05-06T23:02:22.132Z,72.96
2023-05-06T23:04:48.698Z,73.52
2023-05-06T23:07:15.768Z,73.27
2023-05-06T23:09:42.337Z,73.24
2023-05-06T23:12:08.915Z,73.27
2023-05-06T23:14:35.558Z,73.88
2023-05-06T23:17:02.100Z,73.71
2023-05-06T23:19:28.679Z,73.44
2023-05-06T23:21:55.252Z,74.00
2023-05-06T23:24:21.802Z,74.16
2023-05-06T23:26:48.322Z,74.50
2023-05-06T23:29:14.943Z,74.21
2023-05-06T23:31:41.438Z,74.60
2023-05-06T23:34:08.103Z,74.45
2023-05-06T23:36:34.719Z,74.23
2023-05-06T23:39:01.252Z,74.62
2023-05-06T23:41:27.799Z,75.05
2023-05-06T23:43:54.296Z,75.13
2023-05-06T23:46:20.935Z,75.01
2023-05-06T23:48:47.602Z,75.32
2023-05-06T23:51:14.103Z,75.39
2023-05-06T23:53:41.025Z,75.26
2023-05-06T23:56:07.741Z,75.53
2023-05-06T23:58:34.269Z,75.46
